Station: Jabiru  

  Atmospheric Gas Attenuation - ITU Rec 676-11   ----------------- dB/100km -----------------
Date Time Temp RH % AH g/m3 Dew Point Wind Direction Speed kph Gust kph Barometer mB Rainfall Since 9am 24GHz 47GHz 76GHz 122GHz 134GHz 241GHz
10/05 13:50 30.6 59 18.48 21.7 15 20 1010.6 0 39.3 36.5 69.3 183.4 200.9 698.6
10/05 13:40 30.7 59 18.58 21.8 17 20 1010.7 0 39.5 36.6 69.7 184.3 202.1 702.6
10/05 13:30 30.9 58 18.47 21.7 13 24 1010.8 0 39.3 36.3 69.0 182.6 200.0 695.5
10/05 13:20 31.3 56 18.22 21.5 20 24 1010.9 0 38.7 35.7 67.6 178.9 195.5 679.9
10/05 13:10 31.4 56 18.31 21.6 19 24 1011 0 38.9 35.8 67.9 179.7 196.5 683.4
10/05 13:00 31.8 55 18.38 21.9 15 28 1011.2 0 39.0 35.8 67.9 179.6 196.5 683.3
10/05 12:50 31.1 57 18.34 21.6 13 19 1011.3 0 39.0 36.0 68.3 180.7 197.8 687.6
10/05 12:40 31.1 57 18.34 21.6 17 20 1011.4 0 39.0 36.0 68.3 180.7 197.8 687.7
10/05 12:30 30.9 58 18.47 21.7 17 26 1011.6 0 39.3 36.4 69.1 182.7 200.2 695.9
10/05 12:20 31 57 18.25 21.5 19 26 1011.7 0 38.8 35.9 68.0 180.0 196.8 684.3
10/05 12:10 31.9 56 18.81 22.3 13 15 1011.9 0 39.9 36.5 69.6 184.3 202.3 703.5
10/05 12:00 31 57 18.25 21.5 17 30 1011.9 0 38.8 35.9 68.1 180.0 196.9 684.4
10/05 11:50 31.2 57 18.44 21.7 17 26 1012.1 0 39.2 36.2 68.7 181.7 199.0 691.9
10/05 11:40 31 57 18.25 21.5 15 19 1012.2 0 38.8 36.0 68.1 180.1 196.9 684.6
10/05 11:30 31.2 57 18.44 21.9 19 28 1012.2 0 39.2 36.2 68.7 181.8 199.0 692.0
10/05 11:20 30.8 58 18.37 21.6 13 15 1012.3 0 39.0 36.2 68.8 181.9 199.1 692.2
10/05 11:10 30.8 59 18.68 21.9 15 24 1012.4 0 39.7 36.8 70.1 185.5 203.5 707.4
10/05 11:00 30.3 59 18.19 21.4 19 32 1012.6 0 38.7 36.2 68.5 181.1 197.9 688.0
10/05 10:50 30.7 58 18.27 21.5 19 24 1012.7 0 38.8 36.1 68.5 181.1 198.0 688.4
10/05 10:40 30.1 59 17.99 21.2 24 28 1012.7 0 38.3 35.9 67.8 179.3 195.7 680.1
10/05 10:30 30.5 58 18.07 21.3 17 26 1012.8 0 38.4 35.9 67.8 179.3 195.8 680.5
10/05 10:20 29.8 59 17.7 20.9 24 28 1012.8 0 37.7 35.5 66.8 176.7 192.4 668.7
10/05 10:10 30 59 17.9 21.1 20 30 1012.8 0 38.1 35.8 67.5 178.5 194.7 676.7
10/05 10:00 29.6 60 17.81 21 20 35 1012.8 0 38.0 35.8 67.5 178.4 194.4 675.8
10/05 09:50 29.6 58 17.21 20.7 20 30 1012.8 0 36.7 34.8 64.9 171.6 186.1 646.7
10/05 09:40 29.4 60 17.62 20.8 19 24 1012.8 0 37.6 35.6 66.8 176.7 192.3 668.2
10/05 09:30 29.1 59 17.04 20.5 17 28 1012.7 0 36.4 34.7 64.6 170.8 184.9 642.6
10/05 09:20 28.9 61 17.43 20.6 22 28 1012.7 0 37.3 35.4 66.4 175.6 190.9 663.2
10/05 09:10 29 61 17.52 20.7 11 15 1012.8 0 37.4 35.6 66.7 176.4 191.9 666.8
10/05 09:00 28.9 62 17.71 20.9 13 24 1012.7 0 37.8 35.9 67.6 178.8 194.8 676.9
10/05 08:50 28.6 62 17.43 20.6 13 17 1012.6 0 37.3 35.6 66.7 176.3 191.6 665.7
10/05 08:40 28.3 63 17.42 20.6 13 15 1012.5 0 37.3 35.7 66.9 176.9 192.2 667.8
10/05 08:30 28 63 17.13 20.3 11 20 1012.4 0 36.7 35.3 65.9 174.2 188.8 656.1
10/05 08:20 27.7 63 16.85 20 15 19 1012.4 0 36.2 34.9 64.9 171.6 185.6 644.9
10/05 08:10 27.6 63 16.76 19.9 11 15 1012.5 0 36.0 34.8 64.6 170.9 184.6 641.3
10/05 08:00 27.3 64 16.75 19.9 9 15 1012.3 0 36.0 34.9 64.8 171.4 185.2 643.3
10/05 07:50 26.7 65 16.45 19.6 9 11 1012.2 0 35.4 34.6 64.0 169.2 182.4 633.4
10/05 07:40 26.3 66 16.34 19.4 9 11 1012.2 0 35.2 34.6 63.9 168.8 181.8 631.3
10/05 07:30 25.9 67 16.22 19.3 9 17 1012.1 0 35.0 34.5 63.7 168.3 181.0 628.6
10/05 07:20 25.9 67 16.22 19.3 9 11 1011.8 0 35.0 34.5 63.7 168.3 181.0 628.5
10/05 07:10 25.6 67 15.95 19 13 19 1011.6 0 34.4 34.2 62.7 165.8 177.9 617.5
10/05 07:00 25.3 68 15.92 19 9 19 1011.5 0 34.4 34.2 62.9 166.1 178.1 618.4
10/05 06:50 25.1 69 15.97 19 9 11 1011.5 0 34.5 34.4 63.2 167.1 179.3 622.5
10/05 06:40 24.9 69 15.79 18.8 9 11 1011.4 0 34.2 34.2 62.6 165.4 177.2 615.1
10/05 06:30 25.1 68 15.74 18.8 11 13 1011.2 0 34.0 34.0 62.2 164.4 176.0 611.0
10/05 06:20 25.2 67 15.6 18.6 9 11 1011.1 0 33.7 33.7 61.5 162.6 173.8 603.3
10/05 06:10 25.3 66 15.45 18.5 9 13 1011.1 0 33.4 33.4 60.8 160.6 171.5 595.2
10/05 06:00 25.4 64 15.07 18.3 15 20 1011 0 32.6 32.7 59.1 156.1 166.0 576.0
10/05 05:50 25.3 64 14.98 18.2 19 28 1010.9 0 32.4 32.6 58.8 155.3 164.9 572.4
10/05 05:40 25 64 14.73 17.7 13 17 1010.9 0 31.9 32.3 58.0 153.1 162.1 562.5
10/05 05:30 25.2 63 14.67 17.7 9 19 1010.8 0 31.8 32.1 57.6 152.0 160.9 558.2
10/05 05:20 25.3 62 14.51 17.7 11 13 1010.8 0 31.4 31.8 56.8 150.1 158.5 549.9
10/05 05:10 25.3 62 14.51 17.5 7 7 1010.9 0 31.4 31.8 56.8 150.1 158.5 549.9
10/05 05:00 25.5 61 14.44 17.4 9 19 1011 0 31.3 31.6 56.4 148.9 157.1 545.2
10/05 04:50 25.6 62 14.76 17.8 9 13 1011 0 31.9 32.1 57.7 152.3 161.3 559.7
10/05 04:40 25.7 61 14.6 17.6 6 9 1011 0 31.6 31.8 56.9 150.3 158.9 551.4
10/05 04:30 25.6 61 14.52 17.5 9 17 1010.9 0 31.4 31.7 56.7 149.6 158.0 548.3
10/05 04:20 25.7 61 14.6 17.6 13 17 1011 0 31.6 31.8 56.9 150.3 158.9 551.4
10/05 04:10 25.5 63 14.91 17.9 7 9 1011 0 32.3 32.4 58.4 154.1 163.5 567.6
10/05 04:00 25.3 64 14.98 18.2 6 9 1011 0 32.4 32.6 58.8 155.3 164.9 572.4
10/05 03:50 25.3 66 15.45 18.5 6 7 1011.1 0 33.4 33.4 60.8 160.6 171.5 595.2
10/05 03:40 25.3 66 15.45 18.5 7 7 1011.1 0 33.4 33.4 60.8 160.6 171.5 595.2
10/05 03:30 25.4 66 15.54 18.6 6 11 1011.2 0 33.6 33.5 61.1 161.5 172.5 598.8
10/05 03:20 25.5 65 15.39 18.4 6 7 1011.1 0 33.3 33.2 60.4 159.6 170.2 590.7
10/05 03:10 25.5 66 15.63 18.7 6 7 1011.2 0 33.8 33.6 61.4 162.3 173.5 602.5
10/05 03:00 25.4 67 15.77 18.8 7 9 1011.3 0 34.1 33.9 62.1 164.1 175.8 610.1
10/05 02:50 25.5 67 15.86 18.9 6 7 1011.2 0 34.3 34.0 62.4 164.9 176.8 613.7
10/05 02:40 25.5 67 15.86 18.9 6 7 1011.3 0 34.3 34.0 62.4 164.9 176.8 613.8
10/05 02:30 25.6 66 15.71 18.8 6 9 1011.4 0 33.9 33.7 61.7 163.0 174.5 605.7
10/05 02:20 25.4 67 15.77 18.8 6 6 1011.5 0 34.1 33.9 62.1 164.1 175.8 610.2
10/05 02:10 25.4 68 16.01 19.1 6 7 1011.6 0 34.6 34.3 63.2 166.9 179.2 622.1
10/05 02:00 25.6 66 15.71 18.8 9 13 1011.7 0 33.9 33.8 61.7 163.1 174.5 605.8
10/05 01:50 25.8 66 15.89 19 13 17 1011.8 0 34.3 34.0 62.3 164.7 176.6 613.1
10/05 01:40 25.7 67 16.04 19.1 9 13 1011.8 0 34.6 34.3 63.1 166.6 178.9 621.2
10/05 01:30 25.8 67 16.13 19.4 13 19 1011.8 0 34.8 34.4 63.4 167.5 180.0 624.9
10/05 01:20 25.8 69 16.61 19.7 13 15 1011.9 0 35.8 35.3 65.5 173.0 186.8 648.7
10/05 01:10 25.9 68 16.46 19.5 13 17 1012 0 35.5 35.0 64.7 171.1 184.4 640.5
10/05 01:00 25.9 68 16.46 19.5 13 22 1012 0 35.5 35.0 64.7 171.1 184.4 640.5
10/05 00:50 25.9 68 16.46 19.5 11 15 1012 0 35.5 35.0 64.7 171.1 184.4 640.5
10/05 00:40 26 67 16.31 19.4 11 13 1012.1 0 35.2 34.7 64.0 169.1 182.1 632.2
10/05 00:30 26.3 66 16.34 19.4 13 19 1012.2 0 35.2 34.6 63.9 168.8 181.8 631.3
10/05 00:20 26.3 66 16.34 19.4 13 19 1012.2 0 35.2 34.6 63.9 168.8 181.8 631.3
10/05 00:10 26.2 65 16 19.3 7 9 1012.3 0 34.5 34.0 62.5 165.2 177.3 615.5
10/05 00:00 26.4 63 15.68 19 11 20 1012.3 0 33.8 33.4 61.0 161.1 172.3 598.4
09/05 23:50 26.4 63 15.68 19 11 13 1012.4 0 33.8 33.4 61.0 161.1 172.4 598.4
09/05 23:40 26.5 64 16.02 19.1 11 13 1012.5 0 34.5 34.0 62.4 164.8 176.9 614.2
09/05 23:30 26.5 63 15.77 18.9 11 17 1012.5 0 34.0 33.5 61.3 162.0 173.4 602.0
09/05 23:20 26.5 63 15.77 18.9 9 11 1012.5 0 34.0 33.5 61.3 162.0 173.4 602.0
09/05 23:10 26.7 62 15.69 18.8 9 11 1012.6 0 33.8 33.3 60.8 160.7 171.8 596.7
09/05 23:00 26.9 60 15.36 18.7 15 24 1012.6 0 33.1 32.7 59.3 156.6 166.9 579.4
09/05 22:50 26.9 62 15.87 19 17 22 1012.5 0 34.2 33.6 61.4 162.3 173.9 603.8
09/05 22:40 26.9 62 15.87 19 15 19 1012.6 0 34.2 33.6 61.4 162.3 173.9 603.8
09/05 22:30 27.1 61 15.79 18.9 13 22 1012.6 0 34.0 33.3 60.9 161.0 172.3 598.4
09/05 22:20 27.2 61 15.87 19 9 11 1012.6 0 34.1 33.4 61.2 161.7 173.2 601.5
09/05 22:10 27.3 60 15.7 18.9 15 19 1012.7 0 33.8 33.1 60.4 159.6 170.7 592.6
09/05 22:00 27.4 59 15.52 18.7 13 24 1012.6 0 33.4 32.8 59.6 157.3 168.0 583.3
09/05 21:50 27.5 59 15.61 18.8 13 17 1012.6 0 33.6 32.9 59.9 158.1 169.0 586.8
09/05 21:40 27.6 59 15.7 18.9 13 17 1012.4 0 33.7 33.0 60.1 158.9 170.0 590.2
09/05 21:30 27.7 58 15.52 18.7 13 20 1012.5 0 33.4 32.7 59.3 156.7 167.3 581.0
09/05 21:20 27.9 58 15.69 18.9 11 15 1012.5 0 33.7 32.9 59.9 158.2 169.2 587.5

Last Refresh: 10-May-2026 13:57:55

Bureau of Meteorology